Latest Weather Observations for Bougainville Reef

IDQ60801

Issued at 2:02 am EST Saturday 30 May 2015 (issued every 30 minutes, with the page automatically refreshed every 10 minutes)

About weather observations | Map of weather stations | Latest weather observations for QLD | Other Formats
Station Details ID: 200840 Name: BOUGAINVILLE REEF Lat: -15.49 Lon: 147.12 Height: 0.0 m
Data from the previous 72 hours. | See also: Recent months for locations in Queensland
Date/Time
EST
Temp
°C
App
Temp
°C
Dew
Point
Rel
Hum
%
Delta-T
°C
Wind Press
QNH
hPa
Press
MSL
hPa
Rain
since 9 am
mm
Dir
 
Spd
km/h
Gust
km/h
Spd
kts
Gust
kts
30/02:00am 25.7 - - - - ESE 35 39 19 21 1015.5 1015.5 -
30/01:30am 25.7 - - - - ESE 35 41 19 22 1015.8 - -
30/01:00am 25.7 - - - - SE 37 39 20 21 1016.2 1016.3 -
30/12:30am 25.2 - - - - SE 39 48 21 26 1016.7 - -
30/12:00am 25.1 - - - - E 33 35 18 19 1017.1 1017.0 -
 
Date/Time
EST
Temp
°C
App
Temp
°C
Dew
Point
Rel
Hum
%
Delta-T
°C
Wind Press
QNH
hPa
Press
MSL
hPa
Rain
since 9 am
mm
Dir
 
Spd
km/h
Gust
km/h
Spd
kts
Gust
kts
29/11:30pm 26.0 - - - - ESE 35 43 19 23 1017.2 - -
29/11:00pm 26.1 - - - - ESE 35 46 19 25 1017.3 1017.2 -
29/10:30pm 26.1 - - - - ESE 39 46 21 25 1017.3 - -
29/10:00pm 26.3 - - - - ESE 41 46 22 25 1017.3 1017.1 -
29/09:30pm 26.1 - - - - ESE 44 52 24 28 1017.0 - -
29/09:00pm 26.0 - - - - ESE 41 46 22 25 1017.0 1016.8 -
29/08:30pm 26.2 - - - - ESE 39 46 21 25 1017.0 - -
29/08:00pm 26.2 - - - - ESE 41 46 22 25 1016.7 1016.5 -
29/07:30pm 26.1 - - - - ESE 39 46 21 25 1016.4 - -
29/07:00pm 26.3 - - - - ESE 41 46 22 25 1016.2 1016.0 -
29/06:30pm 26.1 - - - - ESE 35 43 19 23 1015.9 - -
29/06:00pm 25.9 - - - - SE 33 43 18 23 1015.5 1015.3 -
29/05:30pm 25.8 - - - - SE 33 39 18 21 1015.4 - -
29/05:00pm 25.8 - - - - SE 35 39 19 21 1015.4 1015.1 -
29/04:30pm 25.8 - - - - SE 35 41 19 22 1015.1 - -
29/04:00pm 26.1 - - - - SE 33 39 18 21 1015.0 1014.9 -
29/03:30pm 26.1 - - - - SE 35 41 19 22 1014.9 - -
29/03:00pm 26.1 - - - - SE 35 41 19 22 1014.9 1014.9 -
29/02:30pm 26.2 - - - - ESE 37 43 20 23 1015.0 - -
29/02:00pm 25.9 - - - - ESE 39 44 21 24 1015.2 1015.2 -
29/01:30pm 26.1 - - - - SE 43 46 23 25 1015.4 - -
29/01:00pm 25.8 - - - - SE 39 46 21 25 1015.8 1015.8 -
29/12:30pm 26.0 - - - - SE 41 46 22 25 1016.2 - -
29/12:00pm 25.7 - - - - SE 44 48 24 26 1016.6 1016.7 -
29/11:30am 26.0 - - - - SE 43 50 23 27 1017.0 - -
29/11:00am 25.9 - - - - SE 44 52 24 28 1017.3 - -
29/10:49am 25.8 - - - - SE 46 - 25 - - 1017.3 -
29/10:30am 25.9 - - - - SE 44 52 24 28 1017.7 - -
29/10:00am 25.8 - - - - SE 48 56 26 30 1017.7 - -
29/09:49am 26.1 - - - - SE 50 - 27 - - 1017.7 -
29/09:30am 26.0 - - - - SE 50 57 27 31 1017.9 - -
29/09:00am 26.1 - - - - SE 48 56 26 30 1017.6 - -
29/08:49am 25.9 - - - - SE 50 - 27 - - 1017.3 -
29/08:30am 26.1 - - - - SE 46 56 25 30 1017.3 - -
29/08:00am 26.1 - - - - SE 44 52 24 28 1017.1 - -
29/07:49am 26.0 - - - - SE 44 - 24 - - 1016.9 -
29/07:30am 26.1 - - - - SE 46 54 25 29 1016.7 - -
29/07:00am 26.1 - - - - SE 48 56 26 30 1016.2 - -
29/06:49am 25.9 - - - - SE 46 - 25 - - 1016.1 -
29/06:30am 26.0 - - - - SE 46 54 25 29 1016.1 - -
29/06:00am 25.7 - - - - SE 41 50 22 27 1015.8 - -
29/05:49am 26.0 - - - - ESE 46 - 25 - - 1015.6 -
29/05:30am 25.7 - - - - ESE 43 56 23 30 1015.5 - -
29/05:00am 24.9 - - - - ESE 44 57 24 31 1015.4 - -
29/04:49am 25.9 - - - - ESE 44 - 24 - - 1015.2 -
29/04:30am 25.9 - - - - ESE 44 50 24 27 1015.2 - -
29/04:00am 26.0 - - - - ESE 44 54 24 29 1015.1 - -
29/03:49am 25.9 - - - - ESE 43 - 23 - - 1015.0 -
29/03:30am 25.8 - - - - ESE 41 48 22 26 1015.2 - -
29/03:00am 26.1 - - - - ESE 43 52 23 28 1015.3 - -
29/02:49am 25.9 - - - - ESE 41 - 22 - - 1015.4 -
29/02:30am 26.2 - - - - ESE 41 48 22 26 1015.6 - -
29/02:00am 25.9 - - - - ESE 44 52 24 28 1015.7 - -
29/01:49am 26.1 - - - - ESE 44 - 24 - - 1015.7 -
29/01:30am 26.0 - - - - ESE 43 48 23 26 1016.1 - -
29/01:00am 26.1 - - - - ESE 41 50 22 27 1016.4 - -
29/12:49am 26.1 - - - - ESE 39 - 21 - - 1016.4 -
29/12:30am 26.0 - - - - ESE 41 48 22 26 1016.6 - -
29/12:00am 26.2 - - - - ESE 39 44 21 24 1016.8 - -
 
Date/Time
EST
Temp
°C
App
Temp
°C
Dew
Point
Rel
Hum
%
Delta-T
°C
Wind Press
QNH
hPa
Press
MSL
hPa
Rain
since 9 am
mm
Dir
 
Spd
km/h
Gust
km/h
Spd
kts
Gust
kts
28/11:49pm 26.0 - - - - ESE 39 - 21 - - 1016.7 -
28/11:30pm 26.1 - - - - ESE 43 48 23 26 1017.0 - -
28/11:00pm 26.1 - - - - ESE 39 44 21 24 1017.2 - -
28/10:49pm 26.1 - - - - ESE 41 - 22 - - 1017.2 -
28/10:30pm 26.0 - - - - ESE 37 43 20 23 1017.2 - -
28/10:00pm 26.2 - - - - ESE 39 43 21 23 1017.4 - -
28/09:49pm 26.2 - - - - ESE 37 - 20 - - 1017.3 -
28/09:30pm 26.2 - - - - ESE 41 46 22 25 1017.3 - -
28/09:00pm 26.2 - - - - ESE 41 46 22 25 1017.3 - -
28/08:49pm 26.1 - - - - ESE 37 - 20 - - 1017.2 -
28/08:30pm 26.2 - - - - ESE 39 43 21 23 1017.2 - -
28/08:00pm 25.2 - - - - ESE 32 44 17 24 1017.1 - -
28/07:49pm 24.7 - - - - SE 39 - 21 - - 1017.0 -
28/07:30pm 24.1 - - - - SE 44 57 24 31 1016.7 - -
28/07:00pm 26.1 - - - - SE 39 44 21 24 1016.2 - -
28/06:49pm 26.2 - - - - SE 37 - 20 - - 1016.1 -
28/06:30pm 26.0 - - - - SE 39 46 21 25 1015.9 - -
28/06:00pm 26.2 - - - - SE 41 46 22 25 1015.6 - -
28/05:49pm 26.1 - - - - SE 39 - 21 - - 1015.3 -
28/05:30pm 26.2 - - - - SE 43 48 23 26 1015.1 - -
28/05:00pm 26.2 - - - - SE 41 48 22 26 1014.9 - -
28/04:49pm 26.0 - - - - SE 41 - 22 - - 1014.6 -
28/04:30pm 26.0 - - - - SE 41 46 22 25 1014.4 - -
28/04:00pm 26.0 - - - - SE 41 46 22 25 1014.3 - -
28/03:49pm 26.1 - - - - SE 41 - 22 - - 1014.3 -
28/03:30pm 26.0 - - - - SE 41 50 22 27 1014.2 - -
28/03:00pm 26.0 - - - - SE 41 48 22 26 1014.3 - -
28/02:49pm 26.0 - - - - SE 41 - 22 - - 1014.3 -
28/02:30pm 26.2 - - - - SE 43 50 23 27 1014.5 - -
28/02:00pm 26.2 - - - - SE 41 48 22 26 1014.6 - -
28/01:49pm 26.1 - - - - SE 43 - 23 - - 1014.5 -
28/01:30pm 26.2 - - - - SE 43 50 23 27 1014.8 - -
28/01:00pm 26.0 - - - - SE 41 46 22 25 1015.2 - -
28/12:49pm 26.0 - - - - SE 43 - 23 - - 1015.2 -
28/12:30pm 26.1 - - - - SE 43 50 23 27 1015.6 - -
28/12:00pm 26.2 - - - - SE 41 48 22 26 1016.0 - -
28/11:49am 26.2 - - - - SE 43 - 23 - - 1016.0 -
28/11:30am 26.2 - - - - SE 44 54 24 29 1016.3 - -
28/11:00am 26.2 - - - - SE 43 50 23 27 1016.5 - -
28/10:49am 26.2 - - - - SE 44 - 24 - - 1016.5 -
28/10:30am 26.1 - - - - ESE 48 54 26 29 1016.8 - -
28/10:00am 26.0 - - - - SE 44 52 24 28 1016.9 - -
28/09:49am 25.9 - - - - SE 48 - 26 - - 1016.8 -
28/09:30am 25.5 - - - - SE 46 56 25 30 1017.0 - -
28/09:00am 25.9 - - - - SE 43 48 23 26 1017.1 - -
28/08:49am 26.0 - - - - ESE 44 - 24 - - 1016.9 -
28/08:30am 24.4 - - - - ESE 50 61 27 33 1016.9 - -
28/08:00am 24.3 - - - - ESE 41 59 22 32 1016.5 - -
28/07:58am 24.9 - - - - SE 39 59 21 32 1016.6 - -
28/07:49am 25.0 - - - - SE 43 - 23 - - 1016.4 -
28/07:30am 24.2 - - - - ESE 46 61 25 33 1016.4 - -
28/07:00am 26.3 - - - - SE 44 52 24 28 1015.7 - -
28/06:49am 26.3 - - - - SE 43 - 23 - - 1015.4 -
28/06:30am 24.5 - - - - SE 41 46 22 25 1015.6 - -
28/06:00am 25.1 - - - - ESE 46 54 25 29 1015.1 - -
28/05:49am 24.8 - - - - SE 44 - 24 - - 1015.0 -
28/05:30am 24.5 - - - - ESE 50 59 27 32 1014.6 - -
28/05:00am 26.2 - - - - ESE 48 54 26 29 1014.4 - -
28/04:49am 26.1 - - - - ESE 46 - 25 - - 1014.2 -
28/04:30am 26.0 - - - - ESE 46 52 25 28 1014.2 - -
28/04:00am 26.0 - - - - ESE 46 54 25 29 1014.1 - -
28/03:49am 26.0 - - - - ESE 48 - 26 - - 1014.0 -
28/03:30am 25.9 - - - - ESE 48 54 26 29 1014.1 - -
28/03:00am 25.7 - - - - ESE 48 56 26 30 1014.3 - -
28/02:49am 25.7 - - - - ESE 50 - 27 - - 1014.2 -
28/02:30am 25.7 - - - - ESE 48 56 26 30 1014.3 - -
28/02:00am 25.8 - - - - ESE 46 56 25 30 1014.4 - -
28/01:49am 25.4 - - - - ESE 46 - 25 - - 1014.5 -
28/01:30am 24.9 - - - - ESE 52 65 28 35 1014.7 - -
28/01:00am 25.6 - - - - SE 54 61 29 33 1015.0 - -
28/12:49am 25.3 - - - - SE 52 - 28 - - 1015.0 -
28/12:30am 23.3 - - - - ESE 54 69 29 37 1015.5 - -
28/12:00am 25.5 - - - - SE 50 59 27 32 1015.5 - -
 
Date/Time
EST
Temp
°C
App
Temp
°C
Dew
Point
Rel
Hum
%
Delta-T
°C
Wind Press
QNH
hPa
Press
MSL
hPa
Rain
since 9 am
mm
Dir
 
Spd
km/h
Gust
km/h
Spd
kts
Gust
kts
27/11:49pm 25.5 - - - - SE 48 - 26 - - 1015.4 -
27/11:30pm 25.0 - - - - SE 48 56 26 30 1015.7 - -
27/11:00pm 25.6 - - - - SE 52 61 28 33 1015.8 - -
27/10:49pm 25.6 - - - - SE 50 - 27 - - 1015.9 -
27/10:30pm 25.2 - - - - SE 46 57 25 31 1016.1 - -
27/10:00pm 25.7 - - - - SE 48 57 26 31 1016.1 - -
27/09:49pm 25.2 - - - - SE 44 - 24 - - 1016.0 -
27/09:30pm 24.2 - - - - SE 46 61 25 33 1016.2 - -
27/09:19pm 24.5 - - - - ESE 50 69 27 37 1015.9 - -
27/09:00pm 26.0 - - - - ESE 48 56 26 30 1016.1 - -
27/08:49pm 25.8 - - - - ESE 50 - 27 - - 1015.9 -
27/08:30pm 25.4 - - - - ESE 46 54 25 29 1016.1 - -
27/08:00pm 25.7 - - - - SE 48 56 26 30 1015.7 - -
27/07:49pm 25.9 - - - - SE 48 - 26 - - 1015.5 -
27/07:30pm 25.8 - - - - SE 48 56 26 30 1015.4 - -
27/07:00pm 25.6 - - - - SE 48 56 26 30 1015.1 - -
27/06:49pm 25.5 - - - - ESE 48 - 26 - - 1014.9 -
27/06:30pm 25.7 - - - - SE 48 57 26 31 1014.6 - -
27/06:00pm 25.6 - - - - SE 44 50 24 27 1014.7 - -
27/05:49pm 25.4 - - - - SE 46 - 25 - - 1014.5 -
27/05:30pm 25.2 - - - - SE 46 57 25 31 1014.5 - -
27/05:00pm 24.5 - - - - SE 43 52 23 28 1014.3 - -
27/04:49pm 24.5 - - - - SE 46 - 25 - - 1014.1 -
27/04:32pm 24.0 - - - - SE 46 65 25 35 1014.1 - -
27/04:30pm 24.9 - - - - SE 43 57 23 31 1014.2 - -
27/04:00pm 25.8 - - - - SE 44 52 24 28 1014.1 - -
27/03:49pm 25.4 - - - - SE 43 - 23 - - 1014.0 -
27/03:30pm 25.7 - - - - SE 46 56 25 30 1014.0 - -
27/03:00pm 25.9 - - - - SE 46 57 25 31 1014.1 - -
27/02:49pm 25.7 - - - - SE 46 - 25 - - 1014.0 -
27/02:30pm 25.8 - - - - SSE 44 54 24 29 1014.2 - -
27/02:00pm 25.8 - - - - SSE 44 52 24 28 1014.3 - -
27/01:49pm 25.8 - - - - SE 43 - 23 - - 1014.2 -
27/01:30pm 25.9 - - - - SE 44 50 24 27 1014.5 - -
27/01:00pm 25.9 - - - - SE 44 50 24 27 1014.9 - -
27/12:49pm 25.9 - - - - SE 43 - 23 - - 1015.0 -
27/12:30pm 25.8 - - - - SE 43 50 23 27 1015.4 - -
27/12:00pm 26.0 - - - - SE 43 50 23 27 1015.6 - -
27/11:49am 26.0 - - - - SE 44 - 24 - - 1015.7 -
27/11:30am 26.0 - - - - SE 46 54 25 29 1016.1 - -
27/11:00am 25.8 - - - - SE 44 50 24 27 1016.6 - -
27/10:49am 25.9 - - - - SE 44 - 24 - - 1016.6 -
27/10:30am 25.9 - - - - SE 46 54 25 29 1016.9 - -
27/10:00am 25.9 - - - - SE 44 52 24 28 1017.0 - -
27/09:49am 26.0 - - - - SE 41 - 22 - - 1016.9 -
27/09:30am 25.5 - - - - SE 46 56 25 30 1017.0 - -
27/09:00am 25.7 - - - - SSE 41 48 22 26 1017.0 - -
27/08:49am 25.3 - - - - SSE 41 - 22 - - 1016.9 -
27/08:30am 25.2 - - - - SE 44 54 24 29 1016.6 - -
27/08:00am 25.5 - - - - SE 43 48 23 26 1016.5 - -
27/07:49am 25.5 - - - - SSE 44 - 24 - - 1016.2 -
27/07:30am 25.4 - - - - SSE 43 50 23 27 1016.4 - -
27/07:00am 25.3 - - - - SE 41 50 22 27 1016.1 - -
27/06:49am 25.3 - - - - SE 43 - 23 - - 1015.8 -
27/06:30am 25.4 - - - - SSE 43 50 23 27 1015.7 - -
27/06:00am 25.5 - - - - SE 41 48 22 26 1015.5 - -
27/05:49am 25.4 - - - - SE 43 - 23 - - 1015.4 -
27/05:30am 25.7 - - - - SE 44 50 24 27 1015.4 - -
27/05:00am 25.3 - - - - SE 37 44 20 24 1015.4 - -
27/04:49am 25.2 - - - - SE 41 - 22 - - 1015.1 -
27/04:30am 25.4 - - - - SE 41 48 22 26 1015.3 - -
27/04:00am 25.3 - - - - SE 41 48 22 26 1015.3 - -
27/03:49am 25.3 - - - - SE 43 - 23 - - 1015.2 -
27/03:30am 25.3 - - - - SE 41 48 22 26 1015.2 - -
27/03:00am 25.4 - - - - ESE 41 46 22 25 1015.5 - -
27/02:49am 25.3 - - - - SE 41 - 22 - - 1015.5 -
27/02:30am 25.5 - - - - ESE 43 50 23 27 1015.8 - -

Other Formats:

Comma delimited format used in spreadsheet applications
http://www.bom.gov.au/fwo/IDQ60801/IDQ60801.95288.axf

JavaScript Object Notation format (JSON) in row-major order
http://www.bom.gov.au/fwo/IDQ60801/IDQ60801.95288.json